sensor_id;sensor_type;location;lat;lon;timestamp;pressure;altitude;pressure_sealevel;temperature;humidity
41254;BME280;26987;59.928;30.306;2023-04-03T00:01:08;102332.38;;;-3.44;100.00
41254;BME280;26987;59.928;30.306;2023-04-03T00:03:37;102318.28;;;-3.61;100.00
41254;BME280;26987;59.928;30.306;2023-04-03T00:06:05;102331.44;;;-3.43;100.00
41254;BME280;26987;59.928;30.306;2023-04-03T00:08:35;102348.97;;;-3.44;100.00
41254;BME280;26987;59.928;30.306;2023-04-03T00:11:03;102345.69;;;-3.49;100.00
41254;BME280;26987;59.928;30.306;2023-04-03T00:13:33;102290.97;;;-3.74;100.00
41254;BME280;26987;59.928;30.306;2023-04-03T00:16:00;102336.28;;;-3.53;100.00
41254;BME280;26987;59.928;30.306;2023-04-03T00:18:29;102333.81;;;-3.56;100.00
41254;BME280;26987;59.928;30.306;2023-04-03T00:20:57;102329.44;;;-3.56;100.00
41254;BME280;26987;59.928;30.306;2023-04-03T00:23:25;102324.25;;;-3.57;100.00
41254;BME280;26987;59.928;30.306;2023-04-03T00:25:53;102314.34;;;-3.70;100.00
41254;BME280;26987;59.928;30.306;2023-04-03T00:28:21;102321.72;;;-3.59;100.00
41254;BME280;26987;59.928;30.306;2023-04-03T00:30:51;102317.44;;;-3.61;100.00
41254;BME280;26987;59.928;30.306;2023-04-03T00:33:19;102323.00;;;-3.68;100.00
41254;BME280;26987;59.928;30.306;2023-04-03T00:35:48;102327.78;;;-3.58;100.00
41254;BME280;26987;59.928;30.306;2023-04-03T00:38:16;102336.28;;;-3.53;100.00
41254;BME280;26987;59.928;30.306;2023-04-03T00:40:46;102324.88;;;-3.52;100.00
41254;BME280;26987;59.928;30.306;2023-04-03T00:43:24;102333.53;;;-3.50;100.00
41254;BME280;26987;59.928;30.306;2023-04-03T00:45:55;102323.03;;;-3.50;100.00
41254;BME280;26987;59.928;30.306;2023-04-03T00:48:27;102341.53;;;-3.53;100.00
41254;BME280;26987;59.928;30.306;2023-04-03T00:50:57;102341.53;;;-3.53;100.00
41254;BME280;26987;59.928;30.306;2023-04-03T00:53:27;102331.19;;;-3.56;100.00
41254;BME280;26987;59.928;30.306;2023-04-03T00:55:57;102342.53;;;-3.56;100.00
41254;BME280;26987;59.928;30.306;2023-04-03T00:58:30;102339.13;;;-3.58;100.00
41254;BME280;26987;59.928;30.306;2023-04-03T01:01:05;102329.50;;;-3.57;100.00
41254;BME280;26987;59.928;30.306;2023-04-03T01:03:34;102319.75;;;-3.55;100.00
41254;BME280;26987;59.928;30.306;2023-04-03T01:06:04;102328.41;;;-3.53;100.00
41254;BME280;26987;59.928;30.306;2023-04-03T01:08:33;102319.75;;;-3.55;100.00
41254;BME280;26987;59.928;30.306;2023-04-03T01:11:01;102288.66;;;-3.81;100.00
41254;BME280;26987;59.928;30.306;2023-04-03T01:13:31;102333.88;;;-3.58;100.00
41254;BME280;26987;59.928;30.306;2023-04-03T01:16:02;102308.97;;;-3.67;100.00
41254;BME280;26987;59.928;30.306;2023-04-03T01:18:32;102330.19;;;-3.53;100.00
41254;BME280;26987;59.928;30.306;2023-04-03T01:21:30;102332.72;;;-3.52;100.00
41254;BME280;26987;59.928;30.306;2023-04-03T01:27:09;102319.53;;;-3.68;100.00
41254;BME280;26987;59.928;30.306;2023-04-03T01:29:38;102310.94;;;-3.72;100.00
41254;BME280;26987;59.928;30.306;2023-04-03T01:32:08;102305.84;;;-3.75;100.00
41254;BME280;26987;59.928;30.306;2023-04-03T01:34:36;102309.41;;;-3.76;100.00
41254;BME280;26987;59.928;30.306;2023-04-03T01:37:04;102317.03;;;-3.71;100.00
41254;BME280;26987;59.928;30.306;2023-04-03T01:39:32;102307.56;;;-3.74;100.00
41254;BME280;26987;59.928;30.306;2023-04-03T01:42:00;102314.50;;;-3.73;100.00
41254;BME280;26987;59.928;30.306;2023-04-03T01:44:34;102306.34;;;-3.67;100.00
41254;BME280;26987;59.928;30.306;2023-04-03T01:47:02;102300.72;;;-3.59;100.00
41254;BME280;26987;59.928;30.306;2023-04-03T01:49:31;102289.53;;;-3.62;100.00
41254;BME280;26987;59.928;30.306;2023-04-03T01:52:00;102311.44;;;-3.63;100.00
41254;BME280;26987;59.928;30.306;2023-04-03T01:54:27;102302.09;;;-3.69;100.00
41254;BME280;26987;59.928;30.306;2023-04-03T01:56:56;102323.06;;;-3.69;100.00
41254;BME280;26987;59.928;30.306;2023-04-03T01:59:24;102318.88;;;-3.73;100.00
41254;BME280;26987;59.928;30.306;2023-04-03T02:01:52;102306.31;;;-3.84;100.00
41254;BME280;26987;59.928;30.306;2023-04-03T02:04:20;102312.31;;;-3.82;100.00
41254;BME280;26987;59.928;30.306;2023-04-03T02:06:49;102325.34;;;-3.81;100.00
41254;BME280;26987;59.928;30.306;2023-04-03T02:09:18;102315.94;;;-3.85;100.00
41254;BME280;26987;59.928;30.306;2023-04-03T02:11:45;102327.13;;;-3.81;100.00
41254;BME280;26987;59.928;30.306;2023-04-03T02:14:13;102315.06;;;-3.85;100.00
41254;BME280;26987;59.928;30.306;2023-04-03T02:16:41;102322.72;;;-3.81;100.00
41254;BME280;26987;59.928;30.306;2023-04-03T02:19:09;102329.75;;;-3.81;100.00
41254;BME280;26987;59.928;30.306;2023-04-03T02:21:37;102291.16;;;-3.97;100.00
41254;BME280;26987;59.928;30.306;2023-04-03T02:24:07;102318.78;;;-3.89;100.00
41254;BME280;26987;59.928;30.306;2023-04-03T02:26:35;102310.28;;;-3.95;100.00
41254;BME280;26987;59.928;30.306;2023-04-03T02:29:03;102318.09;;;-3.93;100.00
41254;BME280;26987;59.928;30.306;2023-04-03T02:31:30;102286.56;;;-4.11;100.00
41254;BME280;26987;59.928;30.306;2023-04-03T02:34:01;102314.75;;;-3.97;100.00
41254;BME280;26987;59.928;30.306;2023-04-03T02:36:29;102305.34;;;-4.01;100.00
41254;BME280;26987;59.928;30.306;2023-04-03T02:38:59;102306.59;;;-3.90;100.00
41254;BME280;26987;59.928;30.306;2023-04-03T02:41:28;102319.06;;;-3.96;100.00
41254;BME280;26987;59.928;30.306;2023-04-03T02:44:01;102308.84;;;-4.02;100.00
41254;BME280;26987;59.928;30.306;2023-04-03T02:46:29;102325.16;;;-3.95;100.00
41254;BME280;26987;59.928;30.306;2023-04-03T02:48:57;102296.06;;;-4.08;100.00
41254;BME280;26987;59.928;30.306;2023-04-03T02:51:26;102307.16;;;-4.03;100.00
41254;BME280;26987;59.928;30.306;2023-04-03T02:53:54;102314.81;;;-3.98;100.00
41254;BME280;26987;59.928;30.306;2023-04-03T02:56:26;102320.00;;;-3.97;100.00
41254;BME280;26987;59.928;30.306;2023-04-03T02:58:55;102311.34;;;-3.99;100.00
41254;BME280;26987;59.928;30.306;2023-04-03T03:01:24;102313.75;;;-3.94;100.00
41254;BME280;26987;59.928;30.306;2023-04-03T03:03:54;102302.19;;;-3.90;100.00
41254;BME280;26987;59.928;30.306;2023-04-03T03:06:23;102316.38;;;-3.94;100.00
41254;BME280;26987;59.928;30.306;2023-04-03T03:08:50;102313.38;;;-3.86;100.00
41254;BME280;26987;59.928;30.306;2023-04-03T03:11:19;102320.25;;;-3.84;100.00
41254;BME280;26987;59.928;30.306;2023-04-03T03:13:47;102311.41;;;-3.81;100.00
41254;BME280;26987;59.928;30.306;2023-04-03T03:16:16;102309.41;;;-3.76;100.00
41254;BME280;26987;59.928;30.306;2023-04-03T03:18:44;102312.16;;;-3.79;100.00
41254;BME280;26987;59.928;30.306;2023-04-03T03:21:13;102325.19;;;-3.77;100.00
41254;BME280;26987;59.928;30.306;2023-04-03T03:23:41;102310.47;;;-3.80;100.00
41254;BME280;26987;59.928;30.306;2023-04-03T03:26:10;102324.34;;;-3.78;99.98
41254;BME280;26987;59.928;30.306;2023-04-03T03:28:39;102309.41;;;-3.76;99.27
41254;BME280;26987;59.928;30.306;2023-04-03T03:31:07;102299.34;;;-3.85;99.31
41254;BME280;26987;59.928;30.306;2023-04-03T03:33:39;102324.28;;;-3.76;99.67
41254;BME280;26987;59.928;30.306;2023-04-03T03:36:07;102314.56;;;-3.74;98.05
41254;BME280;26987;59.928;30.306;2023-04-03T03:38:36;102298.50;;;-3.86;99.61
41254;BME280;26987;59.928;30.306;2023-04-03T03:41:05;102301.22;;;-3.87;99.12
41254;BME280;26987;59.928;30.306;2023-04-03T03:43:34;102326.22;;;-3.80;98.58
41254;BME280;26987;59.928;30.306;2023-04-03T03:46:04;102335.00;;;-3.81;99.14
41254;BME280;26987;59.928;30.306;2023-04-03T03:48:32;102323.81;;;-3.85;98.99
41254;BME280;26987;59.928;30.306;2023-04-03T03:51:01;102316.44;;;-3.96;100.00
41254;BME280;26987;59.928;30.306;2023-04-03T03:53:33;102326.97;;;-3.78;100.00
41254;BME280;26987;59.928;30.306;2023-04-03T03:56:06;102348.94;;;-3.81;100.00
41254;BME280;26987;59.928;30.306;2023-04-03T03:58:36;102319.28;;;-4.00;100.00
41254;BME280;26987;59.928;30.306;2023-04-03T04:01:05;102318.91;;;-3.93;100.00
41254;BME280;26987;59.928;30.306;2023-04-03T04:03:35;102310.84;;;-3.88;100.00
41254;BME280;26987;59.928;30.306;2023-04-03T04:06:05;102316.78;;;-3.84;100.00
41254;BME280;26987;59.928;30.306;2023-04-03T04:08:33;102318.88;;;-3.73;100.00
41254;BME280;26987;59.928;30.306;2023-04-03T04:11:01;102324.19;;;-3.75;100.00
41254;BME280;26987;59.928;30.306;2023-04-03T04:13:29;102316.19;;;-3.72;100.00
41254;BME280;26987;59.928;30.306;2023-04-03T04:15:57;102317.91;;;-3.71;100.00
41254;BME280;26987;59.928;30.306;2023-04-03T04:18:25;102323.97;;;-3.70;100.00
41254;BME280;26987;59.928;30.306;2023-04-03T04:20:53;102328.53;;;-3.74;100.00
41254;BME280;26987;59.928;30.306;2023-04-03T04:23:24;102325.78;;;-3.71;100.00
41254;BME280;26987;59.928;30.306;2023-04-03T04:25:52;102307.78;;;-3.78;100.00
41254;BME280;26987;59.928;30.306;2023-04-03T04:28:21;102316.47;;;-3.78;100.00
41254;BME280;26987;59.928;30.306;2023-04-03T04:30:52;102295.03;;;-3.86;100.00
41254;BME280;26987;59.928;30.306;2023-04-03T04:33:22;102308.25;;;-3.70;100.00
41254;BME280;26987;59.928;30.306;2023-04-03T04:35:50;102310.03;;;-3.71;100.00
41254;BME280;26987;59.928;30.306;2023-04-03T04:38:20;102314.34;;;-3.70;100.00
41254;BME280;26987;59.928;30.306;2023-04-03T04:40:51;102314.34;;;-3.70;100.00
41254;BME280;26987;59.928;30.306;2023-04-03T04:43:20;102320.66;;;-3.74;100.00
41254;BME280;26987;59.928;30.306;2023-04-03T04:46:00;102309.03;;;-3.68;100.00
41254;BME280;26987;59.928;30.306;2023-04-03T04:48:29;102312.03;;;-3.58;100.00
41254;BME280;26987;59.928;30.306;2023-04-03T04:50:57;102317.00;;;-3.52;100.00
41254;BME280;26987;59.928;30.306;2023-04-03T04:53:25;102314.75;;;-3.60;100.00
41254;BME280;26987;59.928;30.306;2023-04-03T04:55:54;102323.19;;;-3.53;100.00
41254;BME280;26987;59.928;30.306;2023-04-03T04:58:22;102313.47;;;-3.51;100.00
41254;BME280;26987;59.928;30.306;2023-04-03T05:00:58;102304.53;;;-3.47;100.00
41254;BME280;26987;59.928;30.306;2023-04-03T05:03:26;102309.47;;;-3.40;100.00
41254;BME280;26987;59.928;30.306;2023-04-03T05:05:54;102251.34;;;-3.68;100.00
41254;BME280;26987;59.928;30.306;2023-04-03T05:08:22;102313.41;;;-3.32;100.00
41254;BME280;26987;59.928;30.306;2023-04-03T05:10:50;102306.13;;;-3.26;100.00
41254;BME280;26987;59.928;30.306;2023-04-03T05:13:20;102300.66;;;-3.22;100.00
41254;BME280;26987;59.928;30.306;2023-04-03T05:15:48;102317.63;;;-3.29;100.00
41254;BME280;26987;59.928;30.306;2023-04-03T05:18:16;102309.84;;;-3.31;100.00
41254;BME280;26987;59.928;30.306;2023-04-03T05:20:44;102315.00;;;-3.29;100.00
41254;BME280;26987;59.928;30.306;2023-04-03T05:23:12;102289.06;;;-3.35;100.00
41254;BME280;26987;59.928;30.306;2023-04-03T05:25:40;102305.97;;;-3.23;100.00
41254;BME280;26987;59.928;30.306;2023-04-03T05:28:10;102319.88;;;-3.21;100.00
41254;BME280;26987;59.928;30.306;2023-04-03T05:30:40;102310.00;;;-3.16;100.00
41254;BME280;26987;59.928;30.306;2023-04-03T05:33:09;102294.19;;;-3.32;100.00
41254;BME280;26987;59.928;30.306;2023-04-03T05:35:45;102323.19;;;-3.18;100.00
41254;BME280;26987;59.928;30.306;2023-04-03T05:38:18;102309.31;;;-3.20;100.00
41254;BME280;26987;59.928;30.306;2023-04-03T05:40:46;102308.38;;;-3.19;100.00
41254;BME280;26987;59.928;30.306;2023-04-03T05:43:15;102317.03;;;-3.17;100.00
41254;BME280;26987;59.928;30.306;2023-04-03T05:45:47;102313.91;;;-3.07;100.00
41254;BME280;26987;59.928;30.306;2023-04-03T05:48:15;102315.00;;;-3.11;100.00
41254;BME280;26987;59.928;30.306;2023-04-03T05:50:43;102312.38;;;-3.11;100.00
41254;BME280;26987;59.928;30.306;2023-04-03T05:53:20;102333.00;;;-3.04;100.00
41254;BME280;26987;59.928;30.306;2023-04-03T05:55:49;102300.03;;;-3.09;99.01
41254;BME280;26987;59.928;30.306;2023-04-03T05:58:17;102319.50;;;-2.96;99.52
41254;BME280;26987;59.928;30.306;2023-04-03T06:00:48;102310.34;;;-2.88;98.76
41254;BME280;26987;59.928;30.306;2023-04-03T06:03:16;102306.25;;;-2.76;97.88
41254;BME280;26987;59.928;30.306;2023-04-03T06:05:44;102319.56;;;-2.63;96.52
41254;BME280;26987;59.928;30.306;2023-04-03T06:08:12;102328.72;;;-2.71;95.51
41254;BME280;26987;59.928;30.306;2023-04-03T06:10:40;102345.84;;;-2.63;94.95
41254;BME280;26987;59.928;30.306;2023-04-03T06:13:08;102316.94;;;-2.63;95.32
41254;BME280;26987;59.928;30.306;2023-04-03T06:15:36;102319.91;;;-2.70;95.04
41254;BME280;26987;59.928;30.306;2023-04-03T06:18:10;102321.75;;;-2.72;95.59
41254;BME280;26987;59.928;30.306;2023-04-03T06:20:38;102334.34;;;-2.61;95.02
41254;BME280;26987;59.928;30.306;2023-04-03T06:23:07;102331.25;;;-2.69;96.73
41254;BME280;26987;59.928;30.306;2023-04-03T06:25:36;102341.13;;;-2.57;94.84
41254;BME280;26987;59.928;30.306;2023-04-03T06:28:04;102341.69;;;-2.68;95.26
41254;BME280;26987;59.928;30.306;2023-04-03T06:30:35;102310.13;;;-2.84;95.16
41254;BME280;26987;59.928;30.306;2023-04-03T06:33:03;102323.03;;;-2.79;95.40
41254;BME280;26987;59.928;30.306;2023-04-03T06:35:32;102326.16;;;-2.72;94.94
41254;BME280;26987;59.928;30.306;2023-04-03T06:38:01;102321.00;;;-2.74;94.87
41254;BME280;26987;59.928;30.306;2023-04-03T06:40:30;102319.22;;;-2.73;94.89
41254;BME280;26987;59.928;30.306;2023-04-03T06:42:58;102321.59;;;-2.69;94.46
41254;BME280;26987;59.928;30.306;2023-04-03T06:45:26;102308.16;;;-2.80;94.45
41254;BME280;26987;59.928;30.306;2023-04-03T06:47:54;102313.50;;;-2.64;94.39
41254;BME280;26987;59.928;30.306;2023-04-03T06:50:22;102353.41;;;-2.57;93.30
41254;BME280;26987;59.928;30.306;2023-04-03T06:52:51;102330.28;;;-2.67;93.81
41254;BME280;26987;59.928;30.306;2023-04-03T06:55:19;102325.03;;;-2.50;93.81
41254;BME280;26987;59.928;30.306;2023-04-03T06:57:47;102340.88;;;-2.52;93.72
41254;BME280;26987;59.928;30.306;2023-04-03T07:00:16;102324.59;;;-2.59;94.11
41254;BME280;26987;59.928;30.306;2023-04-03T07:02:44;102333.25;;;-2.57;93.65
41254;BME280;26987;59.928;30.306;2023-04-03T07:05:12;102345.38;;;-2.54;94.35
41254;BME280;26987;59.928;30.306;2023-04-03T07:07:40;102334.53;;;-2.48;94.71
41254;BME280;26987;59.928;30.306;2023-04-03T07:10:10;102299.78;;;-2.87;94.03
41254;BME280;26987;59.928;30.306;2023-04-03T07:12:37;102333.22;;;-2.73;94.81
41254;BME280;26987;59.928;30.306;2023-04-03T07:15:07;102343.22;;;-2.63;95.33
41254;BME280;26987;59.928;30.306;2023-04-03T07:17:35;102356.56;;;-2.50;93.96
41254;BME280;26987;59.928;30.306;2023-04-03T07:20:04;102309.94;;;-2.63;92.50
41254;BME280;26987;59.928;30.306;2023-04-03T07:22:32;102324.75;;;-2.28;92.36
41254;BME280;26987;59.928;30.306;2023-04-03T07:24:59;102351.53;;;-2.21;92.78
41254;BME280;26987;59.928;30.306;2023-04-03T07:27:29;102233.75;;;-2.79;92.14
41254;BME280;26987;59.928;30.306;2023-04-03T07:29:58;102350.53;;;-2.19;92.87
41254;BME280;26987;59.928;30.306;2023-04-03T07:32:26;102349.66;;;-2.19;92.78
41254;BME280;26987;59.928;30.306;2023-04-03T07:34:54;102337.97;;;-2.13;93.06
41254;BME280;26987;59.928;30.306;2023-04-03T07:37:22;102332.81;;;-1.99;93.46
41254;BME280;26987;59.928;30.306;2023-04-03T07:39:50;102337.56;;;-1.90;92.35
41254;BME280;26987;59.928;30.306;2023-04-03T07:42:17;102329.50;;;-2.03;92.79
41254;BME280;26987;59.928;30.306;2023-04-03T07:44:47;102346.06;;;-2.00;93.43
41254;BME280;26987;59.928;30.306;2023-04-03T07:47:15;102351.56;;;-2.05;94.04
41254;BME280;26987;59.928;30.306;2023-04-03T07:49:44;102351.56;;;-2.05;93.47
41254;BME280;26987;59.928;30.306;2023-04-03T07:52:12;102352.06;;;-1.98;94.01
41254;BME280;26987;59.928;30.306;2023-04-03T07:54:41;102346.31;;;-2.05;93.34
41254;BME280;26987;59.928;30.306;2023-04-03T07:57:09;102348.84;;;-1.87;92.77
41254;BME280;26987;59.928;30.306;2023-04-03T07:59:36;102347.91;;;-1.86;93.13
41254;BME280;26987;59.928;30.306;2023-04-03T08:02:09;102348.16;;;-1.75;93.98
41254;BME280;26987;59.928;30.306;2023-04-03T08:04:36;102349.69;;;-1.71;91.68
41254;BME280;26987;59.928;30.306;2023-04-03T08:07:04;102347.06;;;-1.71;92.43
41254;BME280;26987;59.928;30.306;2023-04-03T08:09:32;102382.94;;;-1.70;91.13
41254;BME280;26987;59.928;30.306;2023-04-03T08:12:00;102352.91;;;-1.82;91.63
41254;BME280;26987;59.928;30.306;2023-04-03T08:14:30;102344.94;;;-1.80;91.53
41254;BME280;26987;59.928;30.306;2023-04-03T08:17:00;102361.66;;;-1.81;91.17
41254;BME280;26987;59.928;30.306;2023-04-03T08:19:32;102350.63;;;-1.88;91.61
41254;BME280;26987;59.928;30.306;2023-04-03T08:21:59;102376.25;;;-1.92;90.30
41254;BME280;26987;59.928;30.306;2023-04-03T08:24:29;102366.31;;;-2.03;91.53
41254;BME280;26987;59.928;30.306;2023-04-03T08:26:57;102361.75;;;-1.99;92.99
41254;BME280;26987;59.928;30.306;2023-04-03T08:29:25;102357.69;;;-1.88;92.03
41254;BME280;26987;59.928;30.306;2023-04-03T08:31:53;102359.53;;;-1.91;92.40
41254;BME280;26987;59.928;30.306;2023-04-03T08:34:21;102375.63;;;-1.97;91.45
41254;BME280;26987;59.928;30.306;2023-04-03T08:36:50;102370.88;;;-2.06;92.47
41254;BME280;26987;59.928;30.306;2023-04-03T08:39:18;102359.69;;;-2.26;92.23
41254;BME280;26987;59.928;30.306;2023-04-03T08:41:46;102364.72;;;-2.05;93.00
41254;BME280;26987;59.928;30.306;2023-04-03T08:44:19;102359.03;;;-1.97;93.12
41254;BME280;26987;59.928;30.306;2023-04-03T08:46:59;102338.75;;;-1.95;93.13
41254;BME280;26987;59.928;30.306;2023-04-03T08:49:31;102358.59;;;-1.90;90.69
41254;BME280;26987;59.928;30.306;2023-04-03T08:52:04;102327.69;;;-2.18;90.84
41254;BME280;26987;59.928;30.306;2023-04-03T08:54:35;102349.25;;;-2.11;91.14
41254;BME280;26987;59.928;30.306;2023-04-03T08:57:05;102364.19;;;-1.96;91.67
41254;BME280;26987;59.928;30.306;2023-04-03T08:59:35;102359.28;;;-1.86;92.93
41254;BME280;26987;59.928;30.306;2023-04-03T09:02:18;102374.13;;;-1.69;91.69
41254;BME280;26987;59.928;30.306;2023-04-03T09:04:50;102366.59;;;-1.75;90.55
41254;BME280;26987;59.928;30.306;2023-04-03T09:07:23;102372.25;;;-1.83;91.18
41254;BME280;26987;59.928;30.306;2023-04-03T09:09:55;102363.50;;;-1.83;91.33
41254;BME280;26987;59.928;30.306;2023-04-03T09:12:27;102349.63;;;-1.85;91.74
41254;BME280;26987;59.928;30.306;2023-04-03T09:15:09;102372.59;;;-1.73;91.60
41254;BME280;26987;59.928;30.306;2023-04-03T09:17:51;102383.13;;;-1.73;91.35
41254;BME280;26987;59.928;30.306;2023-04-03T09:20:24;102362.25;;;-1.76;91.97
41254;BME280;26987;59.928;30.306;2023-04-03T09:22:59;102368.53;;;-1.79;92.54
41254;BME280;26987;59.928;30.306;2023-04-03T09:25:32;102358.19;;;-1.98;92.20
41254;BME280;26987;59.928;30.306;2023-04-03T09:28:01;102371.50;;;-1.69;91.70
41254;BME280;26987;59.928;30.306;2023-04-03T09:30:29;102384.66;;;-1.69;89.75
41254;BME280;26987;59.928;30.306;2023-04-03T09:32:57;102372.09;;;-1.63;89.55
41254;BME280;26987;59.928;30.306;2023-04-03T09:35:27;102338.81;;;-1.81;89.50
41254;BME280;26987;59.928;30.306;2023-04-03T09:38:00;102353.84;;;-1.67;89.53
41254;BME280;26987;59.928;30.306;2023-04-03T09:40:31;102361.00;;;-1.69;90.44
41254;BME280;26987;59.928;30.306;2023-04-03T09:43:08;102346.38;;;-1.58;91.69
41254;BME280;26987;59.928;30.306;2023-04-03T09:45:47;102357.25;;;-1.34;89.79
41254;BME280;26987;59.928;30.306;2023-04-03T09:48:17;102376.50;;;-1.48;90.04
41254;BME280;26987;59.928;30.306;2023-04-03T09:50:54;102366.31;;;-1.54;90.27
41254;BME280;26987;59.928;30.306;2023-04-03T09:53:30;102369.34;;;-1.46;91.27
41254;BME280;26987;59.928;30.306;2023-04-03T09:55:59;102389.66;;;-1.48;90.94
41254;BME280;26987;59.928;30.306;2023-04-03T09:58:31;102375.13;;;-1.39;89.81
41254;BME280;26987;59.928;30.306;2023-04-03T10:01:02;102274.06;;;-2.14;90.17
41254;BME280;26987;59.928;30.306;2023-04-03T10:03:32;102396.44;;;-1.44;89.85
41254;BME280;26987;59.928;30.306;2023-04-03T10:06:02;102366.78;;;-1.47;89.59
41254;BME280;26987;59.928;30.306;2023-04-03T10:08:33;102367.63;;;-1.31;90.47
41254;BME280;26987;59.928;30.306;2023-04-03T10:11:08;102356.59;;;-1.37;89.73
41254;BME280;26987;59.928;30.306;2023-04-03T10:13:36;102374.44;;;-1.27;88.24
41254;BME280;26987;59.928;30.306;2023-04-03T10:16:18;102383.47;;;-1.16;87.94
41254;BME280;26987;59.928;30.306;2023-04-03T10:18:49;102381.84;;;-1.19;86.87
41254;BME280;26987;59.928;30.306;2023-04-03T10:21:32;102390.00;;;-1.07;85.16
41254;BME280;26987;59.928;30.306;2023-04-03T10:24:09;102391.28;;;-1.15;85.33
41254;BME280;26987;59.928;30.306;2023-04-03T10:26:45;102383.97;;;-1.09;85.78
41254;BME280;26987;59.928;30.306;2023-04-03T10:29:33;102377.47;;;-1.04;85.29
41254;BME280;26987;59.928;30.306;2023-04-03T10:32:15;102392.75;;;-0.94;85.25
41254;BME280;26987;59.928;30.306;2023-04-03T10:34:45;102378.72;;;-0.95;84.30
41254;BME280;26987;59.928;30.306;2023-04-03T10:37:20;102370.91;;;-0.96;84.67
41254;BME280;26987;59.928;30.306;2023-04-03T10:39:54;102383.25;;;-0.97;85.41
41254;BME280;26987;59.928;30.306;2023-04-03T10:42:28;102374.31;;;-0.94;85.65
41254;BME280;26987;59.928;30.306;2023-04-03T10:45:14;102383.25;;;-0.97;85.61
41254;BME280;26987;59.928;30.306;2023-04-03T10:47:55;102372.84;;;-0.84;86.66
41254;BME280;26987;59.928;30.306;2023-04-03T10:50:35;102384.22;;;-0.83;85.89
41254;BME280;26987;59.928;30.306;2023-04-03T10:53:11;102403.97;;;-0.91;85.88
41254;BME280;26987;59.928;30.306;2023-04-03T10:55:46;102359.13;;;-1.05;87.48
41254;BME280;26987;59.928;30.306;2023-04-03T10:58:21;102376.69;;;-0.90;87.70
41254;BME280;26987;59.928;30.306;2023-04-03T11:00:53;102361.25;;;-0.96;87.04
41254;BME280;26987;59.928;30.306;2023-04-03T11:03:29;102367.97;;;-0.75;86.00
41254;BME280;26987;59.928;30.306;2023-04-03T11:06:01;102339.69;;;-1.03;86.65
41254;BME280;26987;59.928;30.306;2023-04-03T11:08:33;102367.28;;;-0.79;86.84
41254;BME280;26987;59.928;30.306;2023-04-03T11:11:06;102373.97;;;-0.73;87.17
41254;BME280;26987;59.928;30.306;2023-04-03T11:13:39;102386.03;;;-0.69;86.09
41254;BME280;26987;59.928;30.306;2023-04-03T11:16:09;102375.00;;;-0.76;85.86
41254;BME280;26987;59.928;30.306;2023-04-03T11:18:44;102351.59;;;-1.11;86.44
41254;BME280;26987;59.928;30.306;2023-04-03T11:21:16;102387.75;;;-0.68;86.07
41254;BME280;26987;59.928;30.306;2023-04-03T11:23:48;102384.59;;;-0.90;86.85
41254;BME280;26987;59.928;30.306;2023-04-03T11:26:18;102373.09;;;-0.89;87.87
41254;BME280;26987;59.928;30.306;2023-04-03T11:28:52;102384.59;;;-0.90;88.10
41254;BME280;26987;59.928;30.306;2023-04-03T11:31:33;102362.88;;;-1.24;88.21
41254;BME280;26987;59.928;30.306;2023-04-03T11:34:15;102374.84;;;-1.04;89.77
41254;BME280;26987;59.928;30.306;2023-04-03T11:36:49;102338.75;;;-1.32;88.85
41254;BME280;26987;59.928;30.306;2023-04-03T11:39:23;102385.97;;;-0.98;89.40
41254;BME280;26987;59.928;30.306;2023-04-03T11:41:53;102394.72;;;-0.98;88.55
41254;BME280;26987;59.928;30.306;2023-04-03T11:44:33;102393.53;;;-1.08;88.87
41254;BME280;26987;59.928;30.306;2023-04-03T11:47:03;102379.63;;;-1.10;89.52
41254;BME280;26987;59.928;30.306;2023-04-03T11:49:50;102384.75;;;-0.93;88.49
41254;BME280;26987;59.928;30.306;2023-04-03T11:52:56;102380.78;;;-1.00;88.98
41254;BME280;26987;59.928;30.306;2023-04-03T11:55:57;102393.97;;;-1.00;89.44
41254;BME280;26987;59.928;30.306;2023-04-03T11:58:30;102385.22;;;-1.00;89.68
41254;BME280;26987;59.928;30.306;2023-04-03T12:01:01;102382.31;;;-0.96;89.56
41254;BME280;26987;59.928;30.306;2023-04-03T12:09:26;102362.50;;;-1.18;88.30
41254;BME280;26987;59.928;30.306;2023-04-03T12:11:56;102330.59;;;-1.28;88.06
41254;BME280;26987;59.928;30.306;2023-04-03T12:14:26;102379.75;;;-0.97;89.13
41254;BME280;26987;59.928;30.306;2023-04-03T12:16:55;102382.72;;;-0.87;88.51
41254;BME280;26987;59.928;30.306;2023-04-03T12:19:34;102388.53;;;-0.97;87.85
41254;BME280;26987;59.928;30.306;2023-04-03T12:22:09;102344.00;;;-1.32;88.62
41254;BME280;26987;59.928;30.306;2023-04-03T12:24:40;102380.28;;;-1.07;89.22
41254;BME280;26987;59.928;30.306;2023-04-03T12:27:27;102362.91;;;-0.95;88.68
41254;BME280;26987;59.928;30.306;2023-04-03T12:30:04;102371.47;;;-1.06;89.49
41254;BME280;26987;59.928;30.306;2023-04-03T12:32:43;102363.31;;;-1.01;89.25
41254;BME280;26987;59.928;30.306;2023-04-03T12:35:27;102369.91;;;-0.94;88.96
41254;BME280;26987;59.928;30.306;2023-04-03T12:38:23;102337.78;;;-1.15;89.41
41254;BME280;26987;59.928;30.306;2023-04-03T12:41:00;102363.84;;;-1.10;89.00
41254;BME280;26987;59.928;30.306;2023-04-03T12:43:42;102372.22;;;-1.04;89.17
41254;BME280;26987;59.928;30.306;2023-04-03T12:46:15;102386.41;;;-1.06;89.55
41254;BME280;26987;59.928;30.306;2023-04-03T12:48:49;102336.88;;;-1.30;89.08
41254;BME280;26987;59.928;30.306;2023-04-03T12:51:20;102349.09;;;-1.13;89.98
41254;BME280;26987;59.928;30.306;2023-04-03T12:53:50;102340.00;;;-1.23;89.10
41254;BME280;26987;59.928;30.306;2023-04-03T12:56:21;102328.91;;;-1.29;88.62
41254;BME280;26987;59.928;30.306;2023-04-03T12:58:50;102365.19;;;-1.03;88.70
41254;BME280;26987;59.928;30.306;2023-04-03T13:01:21;102376.19;;;-0.96;88.47
41254;BME280;26987;59.928;30.306;2023-04-03T13:03:53;102379.94;;;-1.00;88.78